createdAt,value
2019-05-29T00:00:25.181Z,88.78
2019-05-29T00:02:56.889Z,88.32
2019-05-29T00:05:28.571Z,89.11
2019-05-29T00:08:00.151Z,89.82
2019-05-29T00:10:31.971Z,89.89
2019-05-29T00:13:03.474Z,89.65
2019-05-29T00:15:35.283Z,90.04
2019-05-29T00:18:06.832Z,89.31
2019-05-29T00:20:38.413Z,89.20
2019-05-29T00:23:10.478Z,90.18
2019-05-29T00:25:42.016Z,89.70
2019-05-29T00:28:14.763Z,90.87
2019-05-29T00:30:47.639Z,90.78
2019-05-29T00:33:19.247Z,91.19
2019-05-29T00:35:50.812Z,90.99
2019-05-29T00:38:22.354Z,90.85
2019-05-29T00:41:02.596Z,91.06
2019-05-29T00:43:53.806Z,90.86
2019-05-29T00:46:27.708Z,90.71
2019-05-29T00:48:59.312Z,90.81
2019-05-29T00:51:30.922Z,90.63
2019-05-29T00:54:02.459Z,90.88
2019-05-29T00:56:33.973Z,90.69
2019-05-29T00:59:05.562Z,91.16
2019-05-29T01:01:37.473Z,90.81
2019-05-29T01:04:09.585Z,91.36
2019-05-29T01:06:41.422Z,90.85
2019-05-29T01:09:12.939Z,91.21
2019-05-29T01:11:44.535Z,91.31
2019-05-29T01:14:17.168Z,90.71
2019-05-29T01:16:48.832Z,90.77
2019-05-29T01:19:26.150Z,92.31
2019-05-29T01:21:58.520Z,91.89
2019-05-29T01:24:30.533Z,91.10
2019-05-29T01:27:02.282Z,90.81
2019-05-29T01:29:33.897Z,91.76
2019-05-29T01:32:05.451Z,91.54
2019-05-29T01:34:36.939Z,91.37
2019-05-29T01:37:08.429Z,91.74
2019-05-29T01:39:40.571Z,91.57
2019-05-29T01:42:12.062Z,91.43
2019-05-29T01:44:43.680Z,91.17
2019-05-29T01:47:15.421Z,91.53
2019-05-29T01:49:46.922Z,91.40
2019-05-29T01:52:19.572Z,91.50
2019-05-29T01:54:51.495Z,91.52
2019-05-29T01:57:23.797Z,92.04
2019-05-29T01:59:55.381Z,92.89
2019-05-29T02:02:28.150Z,92.38
2019-05-29T02:05:00.115Z,92.54
2019-05-29T02:07:31.656Z,92.53
2019-05-29T02:10:03.131Z,92.57
2019-05-29T02:12:34.699Z,92.68
2019-05-29T02:15:21.085Z,93.50
2019-05-29T02:17:40.999Z,94.08
2019-05-29T02:20:12.907Z,93.70
2019-05-29T02:22:44.431Z,94.39
2019-05-29T02:25:17.694Z,94.01
2019-05-29T02:27:49.398Z,94.22
2019-05-29T02:30:23.608Z,94.43
2019-05-29T02:32:54.511Z,93.94
2019-05-29T02:35:28.778Z,93.90
2019-05-29T02:37:59.784Z,94.75
2019-05-29T02:40:32.000Z,94.99
2019-05-29T02:43:03.747Z,94.92
2019-05-29T02:45:53.176Z,95.21
2019-05-29T02:48:08.537Z,95.63
2019-05-29T02:50:40.371Z,95.35
2019-05-29T02:53:12.258Z,95.38
2019-05-29T02:55:43.923Z,94.61
2019-05-29T02:58:15.476Z,94.31
2019-05-29T03:00:56.656Z,93.90
2019-05-29T03:03:29.976Z,94.77
2019-05-29T03:06:01.435Z,94.08
2019-05-29T03:08:34.386Z,94.26
2019-05-29T03:11:06.428Z,93.72
2019-05-29T03:13:37.900Z,93.42
2019-05-29T03:16:12.413Z,93.54
2019-05-29T03:18:42.540Z,92.88
2019-05-29T03:21:14.272Z,93.21
2019-05-29T03:23:45.788Z,93.01
2019-05-29T03:26:17.609Z,93.06
2019-05-29T03:28:49.074Z,92.20
2019-05-29T03:31:21.266Z,92.24
2019-05-29T03:33:53.789Z,93.50
2019-05-29T03:36:28.390Z,92.96
2019-05-29T03:38:58.467Z,93.41
2019-05-29T03:41:30.310Z,93.50
2019-05-29T03:44:01.732Z,93.48
2019-05-29T03:46:41.273Z,93.52
2019-05-29T03:49:06.506Z,93.94
2019-05-29T03:51:39.038Z,94.03
2019-05-29T03:54:10.855Z,93.41
2019-05-29T03:56:42.220Z,93.53
2019-05-29T03:59:13.845Z,92.99
2019-05-29T04:01:45.256Z,93.14
2019-05-29T04:04:16.723Z,92.80
2019-05-29T04:06:48.833Z,93.37
2019-05-29T04:09:20.313Z,93.70
2019-05-29T04:11:52.127Z,93.82
2019-05-29T04:14:24.602Z,92.86
2019-05-29T04:17:00.223Z,92.51
2019-05-29T04:19:34.933Z,93.05
2019-05-29T04:22:11.253Z,92.60
2019-05-29T04:24:42.730Z,93.06
2019-05-29T04:27:15.988Z,92.68
2019-05-29T04:29:48.854Z,92.81
2019-05-29T04:32:20.383Z,92.59
2019-05-29T04:34:52.320Z,92.60
2019-05-29T04:37:25.254Z,92.24
2019-05-29T04:39:56.978Z,91.83
2019-05-29T04:42:29.608Z,91.43
2019-05-29T04:45:01.891Z,91.49
2019-05-29T04:47:35.105Z,90.79
2019-05-29T04:50:06.884Z,91.00
2019-05-29T04:52:40.216Z,90.95
2019-05-29T04:55:12.405Z,89.95
2019-05-29T04:57:43.884Z,89.94
2019-05-29T05:00:15.809Z,89.99
2019-05-29T05:02:47.357Z,89.95
2019-05-29T05:05:19.729Z,89.92
2019-05-29T05:07:53.312Z,88.79
2019-05-29T05:10:43.686Z,88.16
2019-05-29T05:13:15.200Z,89.18
2019-05-29T05:15:48.817Z,89.00
2019-05-29T05:18:20.148Z,89.29
2019-05-29T05:20:51.956Z,89.28
2019-05-29T05:23:23.366Z,88.26
2019-05-29T05:25:54.839Z,88.57
2019-05-29T05:28:26.592Z,89.57
2019-05-29T05:30:58.141Z,87.91
2019-05-29T05:33:30.399Z,88.83
2019-05-29T05:36:02.341Z,87.90
2019-05-29T05:38:34.682Z,87.88
2019-05-29T05:41:06.384Z,88.77
2019-05-29T05:43:38.985Z,88.14
2019-05-29T05:46:10.577Z,86.91
2019-05-29T05:48:42.125Z,86.78
2019-05-29T05:51:13.699Z,87.46
2019-05-29T05:53:45.255Z,86.77
2019-05-29T05:56:16.722Z,86.30
2019-05-29T05:58:48.345Z,86.22
2019-05-29T06:01:19.877Z,86.09
2019-05-29T06:03:51.656Z,85.23
2019-05-29T06:06:23.092Z,85.17
2019-05-29T06:08:54.528Z,85.83
2019-05-29T06:11:26.120Z,85.86
2019-05-29T06:13:57.858Z,85.14
2019-05-29T06:16:29.335Z,85.26
2019-05-29T06:19:01.262Z,84.72
2019-05-29T06:21:32.724Z,84.58
2019-05-29T06:24:04.288Z,85.72
2019-05-29T06:26:36.783Z,85.99
2019-05-29T06:29:08.342Z,84.27
2019-05-29T06:31:41.351Z,86.68
2019-05-29T06:34:12.992Z,83.84
2019-05-29T06:36:47.895Z,84.04
2019-05-29T06:39:18.025Z,82.47
2019-05-29T06:41:49.535Z,82.38
2019-05-29T06:44:21.427Z,82.83
2019-05-29T06:46:52.906Z,83.20
2019-05-29T06:49:24.411Z,82.32
2019-05-29T06:51:56.317Z,82.30
2019-05-29T06:54:28.071Z,82.18
2019-05-29T06:56:59.876Z,83.53
2019-05-29T06:59:31.420Z,83.43
2019-05-29T07:02:02.891Z,82.76
2019-05-29T07:04:34.414Z,83.68
2019-05-29T07:07:06.296Z,82.83
2019-05-29T07:09:38.815Z,83.55
2019-05-29T07:12:10.477Z,82.65
2019-05-29T07:14:42.495Z,82.33
2019-05-29T07:17:13.934Z,82.56
2019-05-29T07:19:58.146Z,82.54
2019-05-29T07:22:18.969Z,81.41
2019-05-29T07:24:50.452Z,81.75
2019-05-29T07:27:21.934Z,82.50
2019-05-29T07:29:53.448Z,81.19
2019-05-29T07:32:25.240Z,81.06
2019-05-29T07:35:03.884Z,81.70
2019-05-29T07:37:30.138Z,81.99
2019-05-29T07:40:01.991Z,82.62
2019-05-29T07:42:33.464Z,83.05
2019-05-29T07:45:06.352Z,80.98
2019-05-29T07:47:38.310Z,81.52
2019-05-29T07:50:11.261Z,80.23
2019-05-29T07:52:44.141Z,78.09
2019-05-29T07:55:16.072Z,76.94
2019-05-29T07:57:48.864Z,76.02
2019-05-29T08:00:22.710Z,75.68
2019-05-29T08:02:54.116Z,73.72
2019-05-29T08:05:25.576Z,75.42
2019-05-29T08:07:56.988Z,75.62
2019-05-29T08:10:28.525Z,75.00
2019-05-29T08:13:00.038Z,77.79
2019-05-29T08:15:32.287Z,77.87
2019-05-29T08:18:03.821Z,77.32
2019-05-29T08:20:35.334Z,76.62
2019-05-29T08:23:06.800Z,79.26
2019-05-29T08:25:38.302Z,78.63
2019-05-29T08:28:11.318Z,78.57
2019-05-29T08:30:48.347Z,78.34
2019-05-29T08:33:17.079Z,78.19
2019-05-29T08:35:57.698Z,77.46
2019-05-29T08:38:21.825Z,77.77
2019-05-29T08:40:53.275Z,76.60
2019-05-29T08:43:25.093Z,77.83
2019-05-29T08:45:56.555Z,76.87
2019-05-29T08:48:28.039Z,76.17
2019-05-29T08:50:59.743Z,76.85
2019-05-29T08:53:31.302Z,77.31
2019-05-29T08:56:02.845Z,75.94
2019-05-29T08:58:37.207Z,74.13
2019-05-29T09:01:07.992Z,76.14
2019-05-29T09:03:39.751Z,75.57
2019-05-29T09:06:13.613Z,75.61
2019-05-29T09:08:46.222Z,71.99
2019-05-29T09:11:17.499Z,70.31
2019-05-29T09:13:48.986Z,69.49
2019-05-29T09:16:20.499Z,67.87
2019-05-29T09:18:52.039Z,65.74
2019-05-29T09:21:26.635Z,67.48
2019-05-29T09:23:59.045Z,65.88
2019-05-29T09:26:30.743Z,65.86
2019-05-29T09:29:02.553Z,69.92
2019-05-29T09:31:34.070Z,70.47
2019-05-29T09:34:05.885Z,68.09
2019-05-29T09:36:37.400Z,68.63
2019-05-29T09:39:09.791Z,67.71
2019-05-29T09:41:41.210Z,67.68
2019-05-29T09:44:28.230Z,66.53
2019-05-29T09:46:45.782Z,65.79
2019-05-29T09:49:18.274Z,66.90
2019-05-29T09:51:49.922Z,65.69
2019-05-29T09:54:21.503Z,66.72
2019-05-29T09:56:56.122Z,64.11
2019-05-29T09:59:27.570Z,61.74
2019-05-29T10:02:00.321Z,59.25
2019-05-29T10:04:32.222Z,57.99
2019-05-29T10:07:04.790Z,59.29
2019-05-29T10:09:36.764Z,60.06
2019-05-29T10:12:08.704Z,61.99
2019-05-29T10:14:40.160Z,63.79
2019-05-29T10:17:13.266Z,64.06
2019-05-29T10:19:45.336Z,64.77
2019-05-29T10:22:16.935Z,63.35
2019-05-29T10:24:48.438Z,61.95
2019-05-29T10:27:20.540Z,62.63
2019-05-29T10:29:53.954Z,57.38
2019-05-29T10:32:25.835Z,57.57
2019-05-29T10:34:57.373Z,60.17
2019-05-29T10:37:28.965Z,60.45
2019-05-29T10:40:00.437Z,62.43
2019-05-29T10:42:32.018Z,64.61
2019-05-29T10:45:03.517Z,63.77
2019-05-29T10:47:35.060Z,63.71
2019-05-29T10:50:07.736Z,60.75
2019-05-29T10:52:39.270Z,60.80
2019-05-29T10:55:11.262Z,60.49
2019-05-29T10:57:44.617Z,60.28
2019-05-29T11:00:18.578Z,60.31
2019-05-29T11:02:53.097Z,61.49
2019-05-29T11:05:23.367Z,62.28
2019-05-29T11:07:55.959Z,62.88
2019-05-29T11:10:27.596Z,65.94
2019-05-29T11:12:59.369Z,67.08
2019-05-29T11:15:30.842Z,68.30
2019-05-29T11:18:02.342Z,68.56
2019-05-29T11:20:33.857Z,69.42
2019-05-29T11:23:05.643Z,69.83
2019-05-29T11:25:37.588Z,68.47
2019-05-29T11:28:09.100Z,69.86
2019-05-29T11:30:40.649Z,70.36
2019-05-29T11:33:12.072Z,70.15
2019-05-29T11:35:58.120Z,70.75
2019-05-29T11:38:17.104Z,71.96
2019-05-29T11:40:49.096Z,72.91
2019-05-29T11:43:21.351Z,72.73
2019-05-29T11:45:53.151Z,73.16
2019-05-29T11:48:25.023Z,74.07
2019-05-29T11:50:56.435Z,74.46
2019-05-29T11:53:28.228Z,74.69
2019-05-29T11:55:59.971Z,74.01
2019-05-29T11:58:31.951Z,75.47
2019-05-29T12:01:03.428Z,73.94
2019-05-29T12:03:35.157Z,74.29
2019-05-29T12:06:06.803Z,75.22
2019-05-29T12:08:38.267Z,73.47
2019-05-29T12:11:09.828Z,73.05
2019-05-29T12:13:41.291Z,72.36
2019-05-29T12:16:12.797Z,72.38
2019-05-29T12:18:44.899Z,72.43
2019-05-29T12:21:16.428Z,71.86
2019-05-29T12:23:47.858Z,70.45
2019-05-29T12:26:22.743Z,70.46
2019-05-29T12:28:53.967Z,71.51
2019-05-29T12:31:26.397Z,69.27
2019-05-29T12:34:04.524Z,69.34
2019-05-29T12:36:31.347Z,69.67
2019-05-29T12:39:04.193Z,68.90
2019-05-29T12:41:36.156Z,69.45
2019-05-29T12:44:08.005Z,67.75
2019-05-29T12:46:39.417Z,67.94
2019-05-29T12:49:11.349Z,65.22
2019-05-29T12:51:42.947Z,66.35
2019-05-29T12:54:14.368Z,63.74
2019-05-29T12:56:45.829Z,62.61
2019-05-29T12:59:17.358Z,62.79
2019-05-29T13:01:48.821Z,60.02
2019-05-29T13:04:20.281Z,61.61
2019-05-29T13:06:51.773Z,59.34
2019-05-29T13:09:23.325Z,59.47
2019-05-29T13:11:54.697Z,60.12
2019-05-29T13:14:26.168Z,61.54
2019-05-29T13:16:58.798Z,60.88
2019-05-29T13:19:30.496Z,60.71
2019-05-29T13:22:03.471Z,60.76
2019-05-29T13:24:35.125Z,61.03
2019-05-29T13:27:06.721Z,62.41
2019-05-29T13:29:38.367Z,60.29
2019-05-29T13:32:09.910Z,59.79
2019-05-29T13:34:41.785Z,59.96
2019-05-29T13:37:13.273Z,60.56
2019-05-29T13:39:45.009Z,54.79
2019-05-29T13:42:16.498Z,57.35
2019-05-29T13:44:48.044Z,53.84
2019-05-29T13:47:19.864Z,53.04
2019-05-29T13:49:51.625Z,48.34
2019-05-29T13:52:23.121Z,50.13
2019-05-29T13:54:54.481Z,52.40
2019-05-29T13:57:25.960Z,52.57
2019-05-29T13:59:57.876Z,53.78
2019-05-29T14:02:30.731Z,53.97
2019-05-29T14:05:02.814Z,56.72
2019-05-29T14:07:35.635Z,60.68
2019-05-29T14:10:09.477Z,56.09
2019-05-29T14:12:41.489Z,54.11
2019-05-29T14:15:13.311Z,57.27
2019-05-29T14:17:45.111Z,62.82
2019-05-29T14:20:17.194Z,59.74
2019-05-29T14:22:49.094Z,56.55
2019-05-29T14:25:20.580Z,57.12
2019-05-29T14:27:52.395Z,57.13
2019-05-29T14:30:24.436Z,57.75
2019-05-29T14:32:56.036Z,54.17
2019-05-29T14:35:27.544Z,54.48
2019-05-29T14:37:59.125Z,56.64
2019-05-29T14:40:30.515Z,58.06
2019-05-29T14:43:01.983Z,60.39
2019-05-29T14:45:34.449Z,57.93
2019-05-29T14:48:06.311Z,55.55
2019-05-29T14:50:37.805Z,51.61
2019-05-29T14:53:10.914Z,52.33
2019-05-29T14:55:42.651Z,53.41
2019-05-29T14:58:14.206Z,53.30
2019-05-29T15:00:45.819Z,51.62
2019-05-29T15:03:17.576Z,51.79
2019-05-29T15:05:49.065Z,52.87
2019-05-29T15:08:20.566Z,52.72
2019-05-29T15:10:52.153Z,53.25
2019-05-29T15:13:24.552Z,53.45
2019-05-29T15:15:56.148Z,53.44
2019-05-29T15:18:27.583Z,56.02
2019-05-29T15:20:59.286Z,55.75
2019-05-29T15:23:30.655Z,56.66
2019-05-29T15:26:02.870Z,57.23
2019-05-29T15:28:34.181Z,56.92
2019-05-29T15:31:06.306Z,57.39
2019-05-29T15:33:37.809Z,58.87
2019-05-29T15:36:10.636Z,57.07
2019-05-29T15:38:42.117Z,54.40
2019-05-29T15:41:14.776Z,52.57
2019-05-29T15:43:49.244Z,54.21
2019-05-29T15:46:22.374Z,53.91
2019-05-29T15:48:54.411Z,52.91
2019-05-29T15:51:25.921Z,52.74
2019-05-29T15:53:57.416Z,54.59
2019-05-29T15:56:28.909Z,56.48
2019-05-29T15:59:00.333Z,55.82
2019-05-29T16:01:31.844Z,56.56
2019-05-29T16:04:03.371Z,58.50
2019-05-29T16:06:34.839Z,57.47
2019-05-29T16:09:10.221Z,57.57
2019-05-29T16:11:42.194Z,56.98
2019-05-29T16:14:14.850Z,55.67
2019-05-29T16:16:46.717Z,54.59
2019-05-29T16:19:18.519Z,55.17
2019-05-29T16:21:50.995Z,54.48
2019-05-29T16:24:23.042Z,56.00
2019-05-29T16:27:07.994Z,57.36
2019-05-29T16:29:29.283Z,59.13
2019-05-29T16:32:00.762Z,59.70
2019-05-29T16:34:32.172Z,55.39
2019-05-29T16:37:03.711Z,55.47
2019-05-29T16:39:35.304Z,58.62
2019-05-29T16:42:07.059Z,56.68
2019-05-29T16:44:38.788Z,57.54
2019-05-29T16:47:10.261Z,56.31
2019-05-29T16:49:41.700Z,59.13
2019-05-29T16:52:13.186Z,57.28
2019-05-29T16:54:44.787Z,57.93
2019-05-29T16:57:17.119Z,57.58
2019-05-29T16:59:48.984Z,57.56
2019-05-29T17:02:21.639Z,57.81
2019-05-29T17:04:53.250Z,59.30
2019-05-29T17:07:24.756Z,58.20
2019-05-29T17:09:56.210Z,59.31
2019-05-29T17:12:27.623Z,57.01
2019-05-29T17:14:59.545Z,56.12
2019-05-29T17:17:31.340Z,55.85
2019-05-29T17:20:02.989Z,56.42
2019-05-29T17:22:34.683Z,58.26
2019-05-29T17:25:07.446Z,58.78
2019-05-29T17:27:39.961Z,59.16
2019-05-29T17:30:12.397Z,60.23
2019-05-29T17:32:43.787Z,60.70
2019-05-29T17:35:15.367Z,58.88
2019-05-29T17:37:46.691Z,59.93
2019-05-29T17:40:19.139Z,60.17
2019-05-29T17:42:51.247Z,61.07
2019-05-29T17:45:25.610Z,60.86
2019-05-29T17:47:55.882Z,60.28
2019-05-29T17:50:28.991Z,61.94
2019-05-29T17:53:00.575Z,60.73
2019-05-29T17:55:32.156Z,60.79
2019-05-29T17:58:03.769Z,62.42
2019-05-29T18:00:35.470Z,61.71
2019-05-29T18:03:07.341Z,62.89
2019-05-29T18:05:39.076Z,62.05
2019-05-29T18:08:10.558Z,61.72
2019-05-29T18:10:41.991Z,63.51
2019-05-29T18:13:13.480Z,65.23
2019-05-29T18:15:45.023Z,65.24
2019-05-29T18:18:17.452Z,65.60
2019-05-29T18:20:50.103Z,65.05
2019-05-29T18:23:21.966Z,66.03
2019-05-29T18:25:53.475Z,68.04
2019-05-29T18:28:26.067Z,67.33
2019-05-29T18:30:57.518Z,63.44
2019-05-29T18:33:29.023Z,64.04
2019-05-29T18:36:00.554Z,65.60
2019-05-29T18:38:32.747Z,64.64
2019-05-29T18:41:04.357Z,65.10
2019-05-29T18:43:35.897Z,65.65
2019-05-29T18:46:07.298Z,67.36
2019-05-29T18:48:38.769Z,69.25
2019-05-29T18:51:10.251Z,69.16
2019-05-29T18:53:41.657Z,70.50
2019-05-29T18:56:13.300Z,72.58
2019-05-29T18:58:44.717Z,74.58
2019-05-29T19:01:16.568Z,75.33
2019-05-29T19:03:48.071Z,76.72
2019-05-29T19:06:19.579Z,77.34
2019-05-29T19:08:51.086Z,78.38
2019-05-29T19:11:23.825Z,79.15
2019-05-29T19:13:55.444Z,79.89
2019-05-29T19:16:27.983Z,80.49
2019-05-29T19:18:59.491Z,81.59
2019-05-29T19:21:31.071Z,82.69
2019-05-29T19:24:02.462Z,83.39
2019-05-29T19:26:36.786Z,84.74
2019-05-29T19:29:07.183Z,85.51
2019-05-29T19:31:42.479Z,85.12
2019-05-29T19:34:12.682Z,85.87
2019-05-29T19:36:44.330Z,85.81
2019-05-29T19:39:15.841Z,85.89
2019-05-29T19:41:47.252Z,86.83
2019-05-29T19:44:18.991Z,88.28
2019-05-29T19:46:54.124Z,87.88
2019-05-29T19:49:25.608Z,88.98
2019-05-29T19:51:58.060Z,89.15
2019-05-29T19:54:29.689Z,89.49
2019-05-29T19:57:01.103Z,90.59
2019-05-29T19:59:34.182Z,90.39
2019-05-29T20:02:05.710Z,90.23
2019-05-29T20:04:37.352Z,90.82
2019-05-29T20:07:08.865Z,90.52
2019-05-29T20:09:40.395Z,90.46
2019-05-29T20:12:12.231Z,89.60
2019-05-29T20:14:43.779Z,88.93
2019-05-29T20:17:15.254Z,89.40
2019-05-29T20:19:46.759Z,89.45
2019-05-29T20:22:18.328Z,89.60
2019-05-29T20:24:49.735Z,90.22
2019-05-29T20:27:21.219Z,90.67
2019-05-29T20:29:53.033Z,90.13
2019-05-29T20:32:25.511Z,90.38
2019-05-29T20:34:57.378Z,90.67
2019-05-29T20:37:30.007Z,91.38
2019-05-29T20:40:02.452Z,91.56
2019-05-29T20:42:34.293Z,91.42
2019-05-29T20:45:06.053Z,91.23
2019-05-29T20:47:38.000Z,91.44
2019-05-29T20:50:10.467Z,91.84
2019-05-29T20:52:42.067Z,91.92
2019-05-29T20:55:14.059Z,92.55
2019-05-29T20:57:45.540Z,91.96
2019-05-29T21:00:18.550Z,92.47
2019-05-29T21:02:50.946Z,92.71
2019-05-29T21:05:22.430Z,92.42
2019-05-29T21:07:56.368Z,92.86
2019-05-29T21:10:27.964Z,92.88
2019-05-29T21:12:59.505Z,92.55
2019-05-29T21:15:31.087Z,92.78
2019-05-29T21:18:02.977Z,92.82
2019-05-29T21:20:34.439Z,93.24
2019-05-29T21:23:05.920Z,93.60
2019-05-29T21:25:38.489Z,93.66
2019-05-29T21:28:10.396Z,93.81
2019-05-29T21:30:43.747Z,93.90
2019-05-29T21:33:15.875Z,94.10
2019-05-29T21:35:48.347Z,94.96
2019-05-29T21:38:19.858Z,94.91
2019-05-29T21:40:51.485Z,94.88
2019-05-29T21:43:23.012Z,94.92
2019-05-29T21:45:54.571Z,95.40
2019-05-29T21:48:26.043Z,95.68
2019-05-29T21:50:57.657Z,95.65
2019-05-29T21:53:30.201Z,95.64
2019-05-29T21:56:01.702Z,95.87
2019-05-29T21:58:33.220Z,96.16
2019-05-29T22:01:05.226Z,94.36
2019-05-29T22:03:38.229Z,92.63
2019-05-29T22:06:10.628Z,90.98
2019-05-29T22:08:42.817Z,89.46
2019-05-29T22:11:14.474Z,89.32
2019-05-29T22:13:46.328Z,88.00
2019-05-29T22:16:17.877Z,88.09
2019-05-29T22:18:50.787Z,89.33
2019-05-29T22:21:22.319Z,89.73
2019-05-29T22:23:55.062Z,90.17
2019-05-29T22:26:26.641Z,91.03
2019-05-29T22:29:16.748Z,91.84
2019-05-29T22:31:32.909Z,92.84
2019-05-29T22:34:04.392Z,93.33
2019-05-29T22:36:36.038Z,93.58
2019-05-29T22:39:07.962Z,93.95
2019-05-29T22:41:39.365Z,94.18
2019-05-29T22:44:10.891Z,94.32
2019-05-29T22:46:42.829Z,94.26
2019-05-29T22:49:14.232Z,94.90
2019-05-29T22:51:45.740Z,95.04
2019-05-29T22:54:17.316Z,95.13
2019-05-29T22:56:48.812Z,95.21
2019-05-29T22:59:31.432Z,95.44
2019-05-29T23:01:54.101Z,94.85
2019-05-29T23:04:25.613Z,93.17
2019-05-29T23:06:58.241Z,91.84
2019-05-29T23:09:30.177Z,93.07
2019-05-29T23:12:02.588Z,93.89
2019-05-29T23:14:34.017Z,94.39
2019-05-29T23:17:05.802Z,92.64
2019-05-29T23:19:37.704Z,92.49
2019-05-29T23:22:09.494Z,91.54
2019-05-29T23:24:40.980Z,91.81
2019-05-29T23:27:12.838Z,93.47
2019-05-29T23:29:49.117Z,92.80
2019-05-29T23:32:17.918Z,92.35
2019-05-29T23:34:49.557Z,92.77
2019-05-29T23:37:21.320Z,92.28
2019-05-29T23:39:53.086Z,93.07
2019-05-29T23:42:24.769Z,93.77
2019-05-29T23:44:57.642Z,93.60
2019-05-29T23:47:29.130Z,94.52
2019-05-29T23:50:02.757Z,95.38
2019-05-29T23:52:34.639Z,95.90
2019-05-29T23:55:06.745Z,96.74
2019-05-29T23:57:38.548Z,97.06
